Time;durP1;ratioP1;P1;durP2;ratioP2;P2;SDS_P1;SDS_P2;PMS_P1;PMS_P2;Temp;Humidity;BMP_temperature;BMP_pressure;BME280_temperature;BME280_humidity;BME280_pressure;Samples;Min_cycle;Max_cycle;Signal;HPM_P1;HPM_P2
2022/08/18 00:02:15;;;;;;;12.77;1.85;;;43.70;41.30;;;;;;5069534;28;20054;-59
2022/08/18 00:04:43;;;;;;;11.27;1.65;;;43.50;41.00;;;;;;5067498;28;20040;-59
2022/08/18 00:07:14;;;;;;;8.70;1.88;;;43.30;41.00;;;;;;5061728;28;20021;-59
2022/08/18 00:09:42;;;;;;;9.20;1.90;;;43.20;41.30;;;;;;5068490;28;20479;-60
2022/08/18 00:12:18;;;;;;;7.63;1.60;;;42.90;41.70;;;;;;5064279;28;20036;-58
2022/08/18 00:14:46;;;;;;;10.07;1.88;;;42.80;42.00;;;;;;5067469;28;20028;-58
2022/08/18 00:17:13;;;;;;;14.10;2.30;;;42.80;42.00;;;;;;5051853;28;20419;-58
2022/08/18 00:19:40;;;;;;;13.27;2.20;;;42.70;42.30;;;;;;5072833;28;20122;-59
2022/08/18 00:22:06;;;;;;;5.88;1.45;;;42.80;42.50;;;;;;5068250;28;20090;-58
2022/08/18 00:24:34;;;;;;;9.52;1.77;;;42.90;42.90;;;;;;5068452;28;20052;-59
2022/08/18 00:27:00;;;;;;;10.23;2.03;;;42.80;42.10;;;;;;5068575;28;20064;-59
2022/08/18 00:29:27;;;;;;;17.10;2.45;;;42.90;42.30;;;;;;5068101;28;20017;-56
2022/08/18 00:31:54;;;;;;;18.67;2.30;;;42.80;42.40;;;;;;5067240;28;20020;-59
2022/08/18 00:34:20;;;;;;;12.73;1.73;;;42.60;42.40;;;;;;5069436;28;20469;-59
2022/08/18 00:36:47;;;;;;;10.73;1.83;;;42.60;42.10;;;;;;5069854;28;20108;-58
2022/08/18 00:39:13;;;;;;;9.43;1.83;;;42.50;42.20;;;;;;5068466;28;20528;-60
2022/08/18 00:41:40;;;;;;;13.32;2.15;;;42.40;42.80;;;;;;5068804;28;20041;-61
2022/08/18 00:44:07;;;;;;;13.57;1.80;;;42.30;42.70;;;;;;5068305;28;20203;-60
2022/08/18 00:46:37;;;;;;;17.55;2.38;;;42.10;42.80;;;;;;5069090;28;20031;-60
2022/08/18 00:49:04;;;;;;;8.75;1.60;;;42.00;43.00;;;;;;5069693;28;20074;-61
2022/08/18 00:51:40;;;;;;;16.10;1.70;;;41.90;43.00;;;;;;5068124;28;20021;-59
2022/08/18 00:54:20;;;;;;;10.48;1.85;;;41.90;43.30;;;;;;5066877;28;20029;-61
2022/08/18 00:56:50;;;;;;;14.32;2.40;;;41.90;43.10;;;;;;5068973;28;20044;-61
2022/08/18 00:59:33;;;;;;;14.75;2.10;;;41.80;43.40;;;;;;5068226;28;20121;-60
2022/08/18 01:02:03;;;;;;;15.60;2.10;;;41.70;43.40;;;;;;5050097;28;20068;-60
2022/08/18 01:04:40;;;;;;;16.65;2.20;;;41.80;43.90;;;;;;5067603;28;20085;-59
2022/08/18 01:07:13;;;;;;;15.18;2.15;;;41.80;43.90;;;;;;5070049;28;20029;-61
2022/08/18 01:09:40;;;;;;;13.30;2.13;;;41.50;44.30;;;;;;5084263;28;20668;-62
2022/08/18 01:12:08;;;;;;;6.63;1.90;;;41.50;44.40;;;;;;5065873;28;20122;-59
2022/08/18 01:14:36;;;;;;;13.25;2.00;;;41.30;44.20;;;;;;5083881;28;20036;-60
2022/08/18 01:22:48;;;;;;;14.40;2.17;;;41.00;44.70;;;;;;5068988;28;20118;-60
2022/08/18 01:28:05;;;;;;;19.98;2.42;;;41.00;45.10;;;;;;5069535;28;20180;-58
2022/08/18 01:30:43;;;;;;;18.60;2.50;;;40.80;45.20;;;;;;5069014;28;20039;-59
2022/08/18 01:33:11;;;;;;;20.38;2.28;;;40.70;45.50;;;;;;5068483;28;20042;-60
2022/08/18 01:35:39;;;;;;;17.48;2.13;;;40.70;45.60;;;;;;5067944;28;20080;-60
2022/08/18 01:38:06;;;;;;;9.25;1.90;;;40.50;45.40;;;;;;5066621;28;20162;-60
2022/08/18 01:40:32;;;;;;;7.25;1.73;;;40.50;45.40;;;;;;5067584;28;20132;-61
2022/08/18 01:43:02;;;;;;;13.80;1.98;;;40.40;45.50;;;;;;5067928;28;20040;-60
2022/08/18 01:45:32;;;;;;;14.35;2.25;;;40.40;45.80;;;;;;5067125;28;20591;-60
2022/08/18 01:47:59;;;;;;;21.70;2.47;;;40.30;45.90;;;;;;5068525;28;20040;-60
2022/08/18 01:50:25;;;;;;;34.17;2.33;;;40.20;46.20;;;;;;5067825;28;20085;-61
2022/08/18 01:52:52;;;;;;;19.55;2.00;;;40.10;46.20;;;;;;5066397;28;20496;-60
2022/08/18 01:55:20;;;;;;;16.08;2.28;;;40.00;46.60;;;;;;5067481;28;20095;-59
2022/08/18 01:57:46;;;;;;;14.40;2.15;;;40.00;46.60;;;;;;5066738;28;20111;-59
2022/08/18 02:00:16;;;;;;;13.20;1.73;;;40.00;46.60;;;;;;5074547;28;20052;-61
2022/08/18 02:02:43;;;;;;;10.10;1.83;;;39.90;46.60;;;;;;5069222;28;20038;-60
2022/08/18 02:05:18;;;;;;;13.93;1.95;;;39.80;46.20;;;;;;5050756;28;20066;-60
2022/08/18 02:07:44;;;;;;;15.80;2.08;;;39.80;46.60;;;;;;5068874;28;20041;-59
2022/08/18 02:10:11;;;;;;;16.08;2.10;;;39.70;46.80;;;;;;5067802;28;20076;-60
2022/08/18 02:12:39;;;;;;;15.02;2.17;;;39.60;47.00;;;;;;5052160;28;20075;-60
2022/08/18 02:15:06;;;;;;;16.73;2.15;;;39.50;47.20;;;;;;5066267;28;20569;-59
2022/08/18 02:17:51;;;;;;;18.80;2.72;;;39.50;47.60;;;;;;5065661;28;20097;-59
2022/08/18 02:20:18;;;;;;;15.27;2.47;;;39.40;47.80;;;;;;5049910;28;20043;-58
2022/08/18 02:22:47;;;;;;;16.08;2.63;;;39.30;48.00;;;;;;5068237;28;20123;-59
2022/08/18 02:25:15;;;;;;;10.32;2.08;;;39.20;48.00;;;;;;5069559;28;20116;-60
2022/08/18 02:27:42;;;;;;;20.75;2.50;;;39.20;48.30;;;;;;5068923;28;20127;-60
2022/08/18 02:30:12;;;;;;;14.02;2.67;;;39.10;48.10;;;;;;5062029;28;20406;-56
2022/08/18 02:32:38;;;;;;;25.65;4.65;;;39.10;47.80;;;;;;5067395;28;20133;-59
2022/08/18 02:35:06;;;;;;;19.02;3.33;;;39.00;48.10;;;;;;5067308;28;20058;-60
2022/08/18 02:37:33;;;;;;;17.20;2.15;;;39.00;48.20;;;;;;5066784;28;20054;-62
2022/08/18 02:40:00;;;;;;;24.08;3.78;;;39.00;48.40;;;;;;5069027;28;20075;-59
2022/08/18 02:42:29;;;;;;;15.15;2.90;;;38.90;48.50;;;;;;5067390;28;20049;-61
2022/08/18 02:44:55;;;;;;;25.92;3.40;;;38.80;48.50;;;;;;5066783;28;20068;-60
2022/08/18 02:47:22;;;;;;;21.75;3.88;;;38.80;48.80;;;;;;5067125;28;20188;-60
2022/08/18 02:49:48;;;;;;;18.00;3.30;;;38.80;49.00;;;;;;5067945;28;20492;-62
2022/08/18 02:52:16;;;;;;;25.10;4.40;;;38.70;49.10;;;;;;5066239;28;20109;-61
2022/08/18 02:54:43;;;;;;;15.57;4.18;;;38.70;49.30;;;;;;5071674;28;20121;-58
2022/08/18 02:57:10;;;;;;;25.17;4.90;;;38.60;49.50;;;;;;5071004;28;20052;-61
2022/08/18 02:59:38;;;;;;;27.17;3.83;;;38.60;49.50;;;;;;5071296;28;20042;-59
2022/08/18 03:02:08;;;;;;;22.92;2.80;;;38.50;49.30;;;;;;5071584;28;20051;-64
2022/08/18 03:04:35;;;;;;;17.85;3.03;;;38.50;49.00;;;;;;5071293;28;20138;-60
2022/08/18 03:07:04;;;;;;;20.25;3.60;;;38.40;48.80;;;;;;5071890;28;20193;-60
2022/08/18 03:09:32;;;;;;;17.70;2.80;;;38.40;48.80;;;;;;5054047;28;20120;-58
2022/08/18 03:11:58;;;;;;;26.40;3.28;;;38.30;48.60;;;;;;5072899;28;20183;-59
2022/08/18 03:14:25;;;;;;;15.77;2.70;;;38.20;48.60;;;;;;5068623;28;20053;-59
2022/08/18 03:16:51;;;;;;;26.83;2.40;;;38.20;48.50;;;;;;5069431;28;20418;-60
2022/08/18 03:19:18;;;;;;;18.65;2.63;;;38.20;48.50;;;;;;5071346;28;20084;-59
2022/08/18 03:21:47;;;;;;;23.70;3.00;;;38.10;48.50;;;;;;5070465;28;20059;-60
2022/08/18 03:24:16;;;;;;;14.80;2.90;;;38.10;48.60;;;;;;5069932;28;20071;-60
2022/08/18 03:26:44;;;;;;;14.73;3.22;;;38.10;48.50;;;;;;5070468;28;20563;-60
2022/08/18 03:29:11;;;;;;;20.92;2.72;;;38.00;48.50;;;;;;5069686;28;20041;-60
2022/08/18 03:31:41;;;;;;;33.05;3.25;;;37.90;48.80;;;;;;5071119;28;20037;-60
2022/08/18 03:34:08;;;;;;;30.77;3.28;;;37.90;49.00;;;;;;5070007;28;20072;-60
2022/08/18 03:36:36;;;;;;;30.35;2.92;;;37.90;49.10;;;;;;5070297;28;20070;-60
2022/08/18 03:39:05;;;;;;;20.08;3.17;;;37.80;49.00;;;;;;5086646;28;20161;-60
2022/08/18 03:41:34;;;;;;;24.30;3.38;;;37.80;49.10;;;;;;5074099;28;20055;-60
2022/08/18 03:44:01;;;;;;;29.30;3.67;;;37.70;49.10;;;;;;5071597;28;20404;-60
2022/08/18 03:46:29;;;;;;;16.73;2.95;;;37.70;49.40;;;;;;5072103;28;20058;-59
2022/08/18 03:48:58;;;;;;;29.83;2.75;;;37.70;49.70;;;;;;5070621;28;20455;-60
2022/08/18 03:51:33;;;;;;;28.70;3.55;;;37.60;49.90;;;;;;5070125;28;20406;-60
2022/08/18 03:54:02;;;;;;;20.85;3.92;;;37.50;50.10;;;;;;5070550;28;20148;-60
2022/08/18 03:56:35;;;;;;;19.10;3.25;;;37.50;50.30;;;;;;5071259;28;20755;-60
2022/08/18 03:59:18;;;;;;;30.08;4.80;;;37.40;50.40;;;;;;5071233;28;20050;-64
2022/08/18 04:01:46;;;;;;;21.50;3.00;;;37.70;50.70;;;;;;5074399;28;20096;-63
2022/08/18 04:04:17;;;;;;;15.45;2.80;;;38.10;49.80;;;;;;5069541;28;20067;-64
2022/08/18 04:06:52;;;;;;;18.35;2.92;;;38.20;49.60;;;;;;5070367;28;20552;-63
2022/08/18 04:09:19;;;;;;;18.00;3.00;;;38.30;49.90;;;;;;5076270;28;20053;-64
2022/08/18 04:11:46;;;;;;;10.85;2.67;;;38.20;50.70;;;;;;5069017;28;20136;-63
2022/08/18 04:14:17;;;;;;;24.63;3.28;;;38.20;51.10;;;;;;5073783;28;21214;-65
2022/08/18 04:16:44;;;;;;;15.65;2.80;;;38.10;51.80;;;;;;5068192;28;20062;-64
2022/08/18 04:19:12;;;;;;;21.95;3.33;;;38.10;52.60;;;;;;5070539;28;20071;-64
2022/08/18 04:21:41;;;;;;;21.35;3.03;;;37.90;52.80;;;;;;5055837;28;20397;-64
2022/08/18 04:24:13;;;;;;;25.08;3.83;;;37.70;53.00;;;;;;5073126;28;20064;-64
2022/08/18 04:26:44;;;;;;;26.17;3.20;;;37.60;53.30;;;;;;5069406;28;20052;-63
2022/08/18 04:29:13;;;;;;;21.98;4.03;;;37.50;53.70;;;;;;5069013;28;20153;-64
2022/08/18 04:31:41;;;;;;;17.60;3.22;;;37.30;54.60;;;;;;5071467;28;20071;-63
2022/08/18 04:34:09;;;;;;;25.15;3.55;;;37.30;55.40;;;;;;5070368;28;20570;-65
2022/08/18 04:36:36;;;;;;;27.33;3.80;;;37.10;56.40;;;;;;5068980;28;20060;-62
2022/08/18 04:39:06;;;;;;;18.88;3.70;;;36.90;57.20;;;;;;5070620;28;20062;-65
2022/08/18 04:41:34;;;;;;;27.23;3.55;;;36.70;57.90;;;;;;5069945;28;20093;-64
2022/08/18 04:44:09;;;;;;;21.63;4.40;;;36.70;58.70;;;;;;5068752;28;20474;-64
2022/08/18 04:46:39;;;;;;;19.35;3.10;;;36.60;59.10;;;;;;5067379;28;20454;-64
2022/08/18 04:49:08;;;;;;;19.10;3.80;;;36.50;58.90;;;;;;5069309;28;20070;-65
2022/08/18 04:51:35;;;;;;;21.08;3.60;;;36.30;59.30;;;;;;5069691;28;20513;-64
2022/08/18 04:54:02;;;;;;;27.58;4.18;;;36.40;59.70;;;;;;5067633;28;20136;-64
2022/08/18 04:56:35;;;;;;;26.73;3.80;;;36.30;59.60;;;;;;5068405;28;20097;-64
2022/08/18 04:59:02;;;;;;;21.42;3.53;;;36.20;59.90;;;;;;5068758;28;20162;-63
2022/08/18 05:01:33;;;;;;;22.58;3.78;;;36.20;60.00;;;;;;5069330;28;20480;-65
2022/08/18 05:04:00;;;;;;;13.93;2.88;;;36.20;60.00;;;;;;5069165;28;20167;-63
2022/08/18 05:06:28;;;;;;;27.42;4.85;;;36.20;60.10;;;;;;5067672;28;20056;-63
2022/08/18 05:09:01;;;;;;;18.23;3.63;;;36.00;60.70;;;;;;5068932;28;20076;-63
2022/08/18 05:11:32;;;;;;;18.75;3.50;;;35.90;61.70;;;;;;5067520;28;20074;-64
2022/08/18 05:14:00;;;;;;;20.75;4.18;;;35.90;62.50;;;;;;5068908;28;20149;-64
2022/08/18 05:16:35;;;;;;;13.52;3.47;;;35.90;63.20;;;;;;5064288;28;20526;-62
2022/08/18 05:19:07;;;;;;;15.07;3.67;;;35.80;64.30;;;;;;5051585;28;20085;-65
2022/08/18 05:21:35;;;;;;;22.92;3.92;;;35.80;65.40;;;;;;5067657;28;20552;-63
2022/08/18 05:24:03;;;;;;;20.17;3.65;;;35.60;66.80;;;;;;5068336;28;20086;-63
2022/08/18 05:26:30;;;;;;;16.42;3.70;;;35.60;67.80;;;;;;5069150;28;20064;-62
2022/08/18 05:28:57;;;;;;;14.13;3.33;;;35.40;68.20;;;;;;5069122;28;20109;-63
2022/08/18 05:31:26;;;;;;;21.02;4.35;;;35.50;68.40;;;;;;5052363;28;20161;-63
2022/08/18 05:33:54;;;;;;;22.77;4.07;;;35.40;68.70;;;;;;5068031;28;20545;-63
2022/08/18 05:36:27;;;;;;;18.08;3.90;;;35.20;68.70;;;;;;5067274;28;20182;-63
2022/08/18 05:39:01;;;;;;;17.05;3.75;;;35.20;69.30;;;;;;5068269;28;20488;-62
2022/08/18 05:41:40;;;;;;;18.13;3.80;;;35.20;69.30;;;;;;5067955;28;20075;-63
2022/08/18 05:44:11;;;;;;;15.93;3.88;;;35.20;69.80;;;;;;5068560;28;20071;-63
2022/08/18 05:46:58;;;;;;;21.50;3.78;;;35.10;70.00;;;;;;5066433;28;20429;-63
2022/08/18 05:49:26;;;;;;;16.17;3.85;;;35.10;71.00;;;;;;5067401;28;20120;-62
2022/08/18 05:52:11;;;;;;;16.05;3.70;;;35.10;71.10;;;;;;5068211;28;20126;-62
2022/08/18 05:57:50;;;;;;;21.98;3.95;;;34.80;71.40;;;;;;5068177;28;20075;-63
2022/08/18 06:00:20;;;;;;;22.20;3.45;;;34.60;71.20;;;;;;5052876;28;20920;-62
2022/08/18 06:02:50;;;;;;;20.55;4.15;;;34.50;71.20;;;;;;5067264;28;20089;-62
2022/08/18 06:05:31;;;;;;;15.50;4.10;;;34.50;71.60;;;;;;5068764;28;20096;-62
2022/08/18 06:08:17;;;;;;;14.00;3.40;;;34.50;70.80;;;;;;5068309;28;20069;-62
2022/08/18 06:10:48;;;;;;;19.88;3.60;;;34.50;70.30;;;;;;5067393;28;20579;-62
2022/08/18 06:13:15;;;;;;;23.33;4.38;;;34.40;70.10;;;;;;5068263;28;21009;-62
2022/08/18 06:15:51;;;;;;;14.77;3.65;;;34.40;70.00;;;;;;5070239;28;20085;-63
2022/08/18 06:18:17;;;;;;;;;;;34.50;69.80;;;;;;5062981;28;20085;-62
2022/08/18 06:21:08;;;;;;;23.93;3.50;;;34.40;69.80;;;;;;5065574;28;20045;-62
2022/08/18 06:23:53;;;;;;;15.88;3.33;;;34.40;69.70;;;;;;5067014;28;20438;-62
2022/08/18 06:26:43;;;;;;;15.75;3.40;;;34.40;69.50;;;;;;5070665;28;20079;-62
2022/08/18 06:29:54;;;;;;;17.58;3.30;;;34.30;70.00;;;;;;5050207;28;20102;-63
2022/08/18 06:32:35;;;;;;;14.57;3.75;;;34.30;70.30;;;;;;5052974;28;20754;-62
2022/08/18 06:35:33;;;;;;;20.42;4.57;;;34.30;70.60;;;;;;5068664;28;20124;-63
2022/08/18 06:41:15;;;;;;;16.30;3.75;;;34.20;71.20;;;;;;5073726;28;20075;-61
2022/08/18 06:44:04;;;;;;;29.60;3.90;;;34.20;72.10;;;;;;5056588;28;20072;-62
2022/08/18 06:47:14;;;;;;;31.83;4.10;;;34.10;73.30;;;;;;5073690;28;20503;-63
2022/08/18 06:49:47;;;;;;;17.00;3.47;;;34.20;74.00;;;;;;5032700;28;20163;-62
2022/08/18 06:52:20;;;;;;;12.88;3.85;;;34.10;74.40;;;;;;5032676;28;20072;-62
2022/08/18 06:54:47;;;;;;;16.05;4.07;;;34.20;74.90;;;;;;5032159;28;20107;-62
2022/08/18 06:57:28;;;;;;;20.17;3.63;;;34.20;75.40;;;;;;5032326;28;20507;-62
2022/08/18 07:00:19;;;;;;;14.02;3.78;;;34.10;75.90;;;;;;5016006;28;20581;-62
2022/08/18 07:02:58;;;;;;;20.60;4.55;;;34.00;77.10;;;;;;5014899;28;20137;-62
2022/08/18 07:05:35;;;;;;;16.30;4.13;;;34.10;77.90;;;;;;5032088;28;20085;-63
2022/08/18 07:08:33;;;;;;;17.63;4.22;;;34.00;78.40;;;;;;5016006;28;20566;-62
2022/08/18 07:11:19;;;;;;;20.25;4.40;;;34.10;78.70;;;;;;5009569;28;20122;-62
2022/08/18 07:14:09;;;;;;;20.50;3.73;;;34.00;79.10;;;;;;5024340;28;20084;-62
2022/08/18 07:16:36;;;;;;;20.65;4.60;;;34.00;79.40;;;;;;5019889;28;20539;-61
2022/08/18 07:19:19;;;;;;;16.02;3.95;;;33.90;80.50;;;;;;4996608;28;20177;-60
2022/08/18 07:22:07;;;;;;;15.27;4.03;;;33.90;81.40;;;;;;5072218;28;20511;-61
2022/08/18 07:24:43;;;;;;;18.02;4.05;;;33.90;82.70;;;;;;5073971;28;20716;-60
2022/08/18 07:27:16;;;;;;;15.20;3.58;;;33.70;84.20;;;;;;5057659;28;20428;-59
2022/08/18 07:29:58;;;;;;;17.83;3.53;;;33.70;85.10;;;;;;5073372;28;20118;-60
2022/08/18 07:32:33;;;;;;;19.52;4.40;;;33.70;85.70;;;;;;5073661;28;20083;-61
2022/08/18 07:35:03;;;;;;;22.17;4.60;;;33.70;86.00;;;;;;5074173;28;20076;-62
2022/08/18 07:37:47;;;;;;;17.30;4.45;;;33.60;86.10;;;;;;5072474;28;20065;-61
2022/08/18 07:40:37;;;;;;;19.65;4.63;;;33.60;85.80;;;;;;5085597;28;20105;-61
2022/08/18 07:43:16;;;;;;;13.10;3.67;;;33.50;84.10;;;;;;5068796;28;20071;-60
2022/08/18 07:45:45;;;;;;;18.23;3.85;;;33.50;84.00;;;;;;5052880;28;20081;-60
2022/08/18 07:48:30;;;;;;;17.40;4.28;;;33.50;83.60;;;;;;5069904;28;20110;-61
2022/08/18 07:51:15;;;;;;;10.18;3.33;;;33.40;83.70;;;;;;5069051;28;20124;-61
2022/08/18 07:54:21;;;;;;;15.88;3.50;;;33.40;84.20;;;;;;5083750;28;20120;-61
2022/08/18 07:57:07;;;;;;;12.95;3.55;;;33.40;84.00;;;;;;5011372;28;20608;-62
2022/08/18 07:59:38;;;;;;;14.75;3.28;;;33.30;83.90;;;;;;5011608;28;20091;-61
2022/08/18 08:02:25;;;;;;;14.27;3.40;;;33.30;84.40;;;;;;4997074;28;20177;-60
2022/08/18 08:05:09;;;;;;;18.55;3.45;;;33.20;85.10;;;;;;5010809;28;20084;-61
2022/08/18 08:07:45;;;;;;;17.52;3.25;;;33.30;85.60;;;;;;5008701;28;20089;-60
2022/08/18 08:10:22;;;;;;;16.48;3.78;;;33.20;85.40;;;;;;5024328;28;20111;-61
2022/08/18 08:12:52;;;;;;;15.30;3.47;;;33.20;85.20;;;;;;5011601;28;20075;-61
2022/08/18 08:15:50;;;;;;;19.50;3.45;;;33.20;85.40;;;;;;5011278;28;20082;-61
2022/08/18 08:18:45;;;;;;;14.00;3.72;;;33.10;85.30;;;;;;5008624;28;20106;-61
2022/08/18 08:21:19;;;;;;;13.93;4.15;;;33.20;85.70;;;;;;5008984;28;20511;-61
2022/08/18 08:23:56;;;;;;;15.85;3.13;;;33.10;85.70;;;;;;5027081;28;20072;-61
2022/08/18 08:26:37;;;;;;;13.25;3.33;;;33.10;85.70;;;;;;5010555;28;21115;-61
2022/08/18 08:29:12;;;;;;;11.43;3.25;;;33.10;86.00;;;;;;5027265;28;20586;-60
2022/08/18 08:31:51;;;;;;;14.33;4.00;;;33.00;86.70;;;;;;5022915;28;20113;-60
2022/08/18 08:34:24;;;;;;;15.35;3.50;;;33.10;87.40;;;;;;5069288;28;20093;-59
2022/08/18 08:37:01;;;;;;;16.45;4.15;;;33.00;88.40;;;;;;5069300;28;20075;-60
2022/08/18 08:39:34;;;;;;;;;;;33.00;89.00;;;;;;5070821;28;20075;-60
2022/08/18 08:42:44;;;;;;;14.73;3.53;;;33.00;89.60;;;;;;5069468;28;20011;-60
2022/08/18 08:45:17;;;;;;;12.35;3.20;;;32.90;90.00;;;;;;4979125;28;20092;-61
2022/08/18 08:48:10;;;;;;;18.88;3.90;;;32.80;88.70;;;;;;4988995;28;20845;-63
2022/08/18 08:50:57;;;;;;;11.52;3.42;;;32.80;90.00;;;;;;4989042;28;20076;-61
2022/08/18 08:53:36;;;;;;;17.77;4.18;;;32.80;90.00;;;;;;4990417;28;20072;-61
2022/08/18 08:56:15;;;;;;;14.73;4.15;;;32.70;90.20;;;;;;4990615;28;20199;-61
2022/08/18 08:59:04;;;;;;;14.73;3.92;;;32.70;90.40;;;;;;4974869;28;20100;-60
2022/08/18 09:01:37;;;;;;;16.50;3.90;;;32.60;90.70;;;;;;4997744;28;20138;-62
2022/08/18 09:04:28;;;;;;;17.48;3.90;;;32.60;91.00;;;;;;4990562;28;20575;-63
2022/08/18 09:07:25;;;;;;;14.18;3.90;;;32.60;91.30;;;;;;4990943;28;20077;-60
2022/08/18 09:10:12;;;;;;;15.23;3.58;;;32.60;91.60;;;;;;5006931;28;20176;-59
2022/08/18 09:12:56;;;;;;;17.30;4.05;;;32.50;92.30;;;;;;4998495;28;20080;-60
2022/08/18 09:16:06;;;;;;;24.25;4.53;;;32.40;92.70;;;;;;5009214;28;20123;-61
2022/08/18 09:19:11;;;;;;;19.00;3.80;;;32.40;93.10;;;;;;5068120;28;20529;-61
2022/08/18 09:22:04;;;;;;;21.35;4.20;;;32.30;93.70;;;;;;5065519;28;20440;-61
2022/08/18 09:24:40;;;;;;;16.77;4.25;;;32.30;94.30;;;;;;5069204;28;20103;-60
2022/08/18 09:27:15;;;;;;;15.57;4.20;;;32.30;94.60;;;;;;5069233;28;20145;-63
2022/08/18 09:29:58;;;;;;;15.70;4.28;;;32.20;94.80;;;;;;5069331;28;20128;-62
2022/08/18 09:32:25;;;;;;;16.15;3.97;;;32.20;95.30;;;;;;5052620;28;20067;-60
2022/08/18 09:35:25;;;;;;;19.90;4.13;;;32.20;95.60;;;;;;5068798;28;20091;-59
2022/08/18 09:41:32;;;;;;;16.65;3.78;;;32.10;96.20;;;;;;5068830;28;20080;-60
2022/08/18 09:44:14;;;;;;;20.83;3.97;;;32.00;96.90;;;;;;5084531;28;20094;-60
2022/08/18 09:46:46;;;;;;;25.67;4.57;;;32.00;97.50;;;;;;5052927;28;20109;-59
2022/08/18 09:49:45;;;;;;;15.13;3.58;;;32.00;97.90;;;;;;5067741;28;20096;-62
2022/08/18 09:52:20;;;;;;;22.42;4.25;;;32.00;98.60;;;;;;5069105;28;20068;-61
2022/08/18 09:55:04;;;;;;;18.90;4.10;;;32.00;99.40;;;;;;5068767;28;20153;-62
2022/08/18 09:57:39;;;;;;;21.80;4.10;;;32.00;99.90;;;;;;5067263;28;20465;-60
2022/08/18 10:00:11;;;;;;;19.73;4.05;;;31.90;99.90;;;;;;5068492;28;20115;-60
2022/08/18 10:02:40;;;;;;;22.23;4.03;;;31.80;99.90;;;;;;5085078;28;20162;-60
2022/08/18 10:05:17;;;;;;;18.30;4.07;;;31.90;99.90;;;;;;5068217;28;20141;-61
2022/08/18 10:08:02;;;;;;;16.98;4.38;;;31.90;99.90;;;;;;5067296;28;20076;-60
2022/08/18 10:10:51;;;;;;;19.95;3.83;;;31.90;99.90;;;;;;5068419;28;20430;-60
2022/08/18 10:13:21;;;;;;;18.90;3.90;;;31.90;99.90;;;;;;5069854;28;20099;-62
2022/08/18 10:16:06;;;;;;;18.90;4.22;;;31.80;99.90;;;;;;5085022;28;20436;-60
2022/08/18 10:18:54;;;;;;;18.80;4.28;;;31.80;99.90;;;;;;5069491;28;20083;-62
2022/08/18 10:21:27;;;;;;;21.00;4.63;;;31.90;99.90;;;;;;5068447;28;20556;-58
2022/08/18 10:24:13;;;;;;;19.05;4.43;;;31.80;99.90;;;;;;5065104;28;20428;-59
2022/08/18 10:26:42;;;;;;;19.17;4.20;;;31.70;99.90;;;;;;5068044;28;20070;-62
2022/08/18 10:29:27;;;;;;;20.38;4.43;;;31.80;99.90;;;;;;5068186;28;20526;-58
2022/08/18 10:32:00;;;;;;;21.60;5.00;;;31.80;99.90;;;;;;5068598;28;20085;-62
2022/08/18 10:34:44;;;;;;;27.58;5.00;;;31.70;99.90;;;;;;5068167;28;20153;-59
2022/08/18 10:37:17;;;;;;;23.55;4.88;;;31.70;99.90;;;;;;5068528;28;20129;-59
2022/08/18 10:39:54;;;;;;;21.15;4.97;;;31.70;99.90;;;;;;5068730;28;20095;-63
2022/08/18 10:42:34;;;;;;;20.35;5.03;;;31.70;99.90;;;;;;5068851;28;20587;-56
2022/08/18 10:45:48;;;;;;;23.63;5.22;;;31.70;99.90;;;;;;5052011;28;20122;-56
2022/08/18 10:48:28;;;;;;;22.40;4.55;;;31.60;99.90;;;;;;5064393;28;20076;-57
2022/08/18 10:51:06;;;;;;;21.50;4.65;;;31.60;99.90;;;;;;5067098;28;20191;-57
2022/08/18 10:53:48;;;;;;;23.80;4.90;;;31.60;99.90;;;;;;5066448;28;20663;-57
2022/08/18 10:56:46;;;;;;;19.25;4.78;;;31.60;99.90;;;;;;5065491;28;20120;-58
2022/08/18 10:59:37;;;;;;;20.23;4.95;;;31.50;99.90;;;;;;5030036;28;20092;-58
2022/08/18 11:02:33;;;;;;;18.23;4.45;;;31.50;99.90;;;;;;5066800;28;20076;-57
2022/08/18 11:05:05;;;;;;;29.10;5.30;;;31.50;99.90;;;;;;5064433;28;20438;-59
2022/08/18 11:07:34;;;;;;;23.35;5.45;;;31.50;99.90;;;;;;5049207;28;20067;-58
2022/08/18 11:10:16;;;;;;;28.30;5.32;;;31.50;99.90;;;;;;5067355;28;20083;-56
2022/08/18 11:13:04;;;;;;;25.15;4.90;;;31.50;99.90;;;;;;5067100;28;20099;-61
2022/08/18 11:15:54;;;;;;;20.48;5.50;;;31.50;99.90;;;;;;5070382;28;20080;-58
2022/08/18 11:18:31;;;;;;;29.70;5.95;;;31.50;99.90;;;;;;5070231;28;20099;-58
2022/08/18 11:21:36;;;;;;;24.00;5.35;;;31.50;99.90;;;;;;5070766;28;20174;-58
2022/08/18 11:24:13;;;;;;;30.35;6.47;;;31.50;99.90;;;;;;5029099;28;20084;-59
2022/08/18 11:26:46;;;;;;;24.67;5.90;;;31.50;99.90;;;;;;5033162;28;20107;-56
2022/08/18 11:29:23;;;;;;;28.60;5.90;;;31.50;99.90;;;;;;5047401;28;20118;-54
2022/08/18 11:32:12;;;;;;;25.88;5.97;;;31.50;99.90;;;;;;5033098;28;20067;-56
2022/08/18 11:34:45;;;;;;;31.95;5.82;;;31.50;99.90;;;;;;5019148;28;20084;-61
2022/08/18 11:37:21;;;;;;;25.17;5.60;;;31.50;99.90;;;;;;5048953;28;20615;-62
2022/08/18 11:39:50;;;;;;;28.58;6.10;;;31.50;99.90;;;;;;5033969;28;20155;-59
2022/08/18 11:42:18;;;;;;;22.95;5.03;;;31.60;99.90;;;;;;5033038;28;20087;-63
2022/08/18 11:44:45;;;;;;;24.27;5.75;;;31.50;99.90;;;;;;5016711;28;20190;-64
2022/08/18 11:47:20;;;;;;;27.77;5.70;;;31.50;99.90;;;;;;5032724;28;20119;-62
2022/08/18 11:50:07;;;;;;;33.88;5.93;;;31.50;99.90;;;;;;5031789;28;20518;-62
2022/08/18 11:52:47;;;;;;;21.15;4.85;;;31.60;99.90;;;;;;5048686;28;20076;-64
2022/08/18 11:55:21;;;;;;;27.38;5.47;;;31.50;99.90;;;;;;5056765;28;20174;-64
2022/08/18 11:57:56;;;;;;;24.75;5.03;;;31.50;99.90;;;;;;5065971;28;20066;-63
2022/08/18 12:01:02;;;;;;;21.20;4.90;;;31.50;99.90;;;;;;5053395;28;20075;-63
2022/08/18 12:03:42;;;;;;;29.95;5.97;;;31.50;99.90;;;;;;5068553;28;20137;-64
2022/08/18 12:06:14;;;;;;;21.65;5.20;;;31.50;99.90;;;;;;5070301;28;20079;-63
2022/08/18 12:09:02;;;;;;;24.27;5.72;;;31.40;99.90;;;;;;5071895;28;20079;-62
2022/08/18 12:11:47;;;;;;;26.65;5.88;;;31.50;99.90;;;;;;5086571;28;20066;-64
2022/08/18 12:14:23;;;;;;;21.98;5.78;;;31.40;99.90;;;;;;5069821;28;20063;-62
2022/08/18 12:16:51;;;;;;;29.17;5.68;;;31.40;99.90;;;;;;5052510;28;20155;-64
2022/08/18 12:19:18;;;;;;;27.67;5.43;;;31.40;99.90;;;;;;5070614;28;20165;-63
2022/08/18 12:21:50;;;;;;;27.73;5.78;;;31.40;99.90;;;;;;5080344;28;20071;-63
2022/08/18 12:24:23;;;;;;;26.13;5.30;;;31.40;99.90;;;;;;5068956;28;20138;-63
2022/08/18 12:26:51;;;;;;;25.95;6.03;;;31.40;99.90;;;;;;5068252;28;20076;-62
2022/08/18 12:29:18;;;;;;;30.90;5.88;;;31.30;99.90;;;;;;5070149;28;20071;-63
2022/08/18 12:31:46;;;;;;;28.92;6.03;;;31.30;99.90;;;;;;5070652;28;20088;-63
2022/08/18 12:34:13;;;;;;;24.83;5.35;;;31.40;99.90;;;;;;5052867;28;20103;-61
2022/08/18 12:36:39;;;;;;;27.77;5.43;;;31.40;99.90;;;;;;5067100;28;20084;-65
2022/08/18 12:39:06;;;;;;;27.35;5.57;;;31.30;99.90;;;;;;5053554;28;20452;-63
2022/08/18 12:41:32;;;;;;;22.50;5.05;;;31.30;99.90;;;;;;5070186;28;20075;-63
2022/08/18 12:43:59;;;;;;;21.23;4.90;;;31.30;99.90;;;;;;5069726;28;20068;-63
2022/08/18 12:46:25;;;;;;;28.00;5.25;;;31.30;99.90;;;;;;5069565;28;20064;-65
2022/08/18 12:48:52;;;;;;;33.00;6.40;;;31.30;99.90;;;;;;5053586;28;20209;-61
2022/08/18 12:51:19;;;;;;;31.25;5.93;;;31.30;99.90;;;;;;5066366;28;20570;-60
2022/08/18 12:53:45;;;;;;;31.25;5.88;;;31.30;99.90;;;;;;5069293;28;20080;-62
2022/08/18 12:56:39;;;;;;;24.50;5.75;;;31.30;99.90;;;;;;5052884;28;20111;-64
2022/08/18 12:59:07;;;;;;;28.08;5.80;;;31.30;99.90;;;;;;5068546;28;20457;-63
2022/08/18 13:01:35;;;;;;;29.98;6.57;;;31.30;99.90;;;;;;5069529;28;20084;-64
2022/08/18 13:04:02;;;;;;;31.90;6.80;;;31.30;99.90;;;;;;5069720;28;20544;-66
2022/08/18 13:06:30;;;;;;;29.50;5.72;;;31.30;99.90;;;;;;5069544;28;20434;-61
2022/08/18 13:08:56;;;;;;;30.63;5.97;;;31.30;99.90;;;;;;5069511;28;20534;-64
2022/08/18 13:11:23;;;;;;;33.58;6.07;;;31.30;99.90;;;;;;5066639;28;20075;-66
2022/08/18 13:13:51;;;;;;;38.00;6.85;;;31.30;99.90;;;;;;5070395;28;20095;-63
2022/08/18 13:16:17;;;;;;;31.50;6.22;;;31.30;99.90;;;;;;5069633;28;20095;-63
2022/08/18 13:18:44;;;;;;;28.75;5.72;;;31.30;99.90;;;;;;5069801;28;20178;-64
2022/08/18 13:21:14;;;;;;;30.23;5.70;;;31.30;99.90;;;;;;5069143;28;20072;-63
2022/08/18 13:23:41;;;;;;;33.17;6.05;;;31.30;99.90;;;;;;5052390;28;20067;-64
2022/08/18 13:26:16;;;;;;;29.15;5.40;;;31.30;99.90;;;;;;5068506;28;20087;-64
2022/08/18 13:28:43;;;;;;;29.25;6.00;;;31.30;99.90;;;;;;5068666;28;20075;-64
2022/08/18 13:31:09;;;;;;;29.13;5.70;;;31.30;99.90;;;;;;5070232;28;20075;-64
2022/08/18 13:33:36;;;;;;;28.45;6.03;;;31.30;99.90;;;;;;5069431;28;20500;-64
2022/08/18 13:36:02;;;;;;;35.95;7.38;;;31.30;99.90;;;;;;5051348;28;20079;-64